Cincinnati, Ohio
Traffic Map
Current Weather Conditions
Cincinnati, Ohio
Clear
Clear
27°
Feels Like: 27°
Wind Chill: 27° Ceiling: Unl
Heat Index: 27° Visibility: 10mi
Dew Point: 26° Wind: 0mph
Humidity: 96% Direction: ° ()
Pressure: 30.2in Gusts: 0mph
Raw Report DataKLUK 170753Z AUTO 00000KT 10SM CLR M03/M03 A3020 RMK AO2 SLP229 T10281033
Traffic Incident Summary
Active as of:
Severity:
Category:
InformationThere was an issue retrieving the traffic information for this location. Please try a different location or try again shortly.
Advertisements